Shindler, South Dakota
Current Conditions -  °F | °C
As of 12:56 PM on Thursday 27 Nov 2014 (Local Time) from KFSD Reporting Station
Overcast Overcast  
Wind Chill: -4°   Ceiling: 3600
Heat Index:   Visibility: 10mi
Dew Point: -4°   Wind: 8mph
Humidity: 58%   Direction: 140°SE
Pressure: 30.39"   Gusts: NA
Location:  43.5199°N, 96.7933°W
Report Text: KFSD 271856Z 14007KT 10SM OVC036 M13/M20 A3039 RMK AO2 SLP327 T11331200
Loading
Personal Weather Stations






























Interactive Weather Map New forecast layout! Learn more

10-Day Weather Forecast

Advertisements
Track Severe Weather on mobile